createdAt,value
2023-03-24T00:02:22.919Z,10.00
2023-03-24T00:04:50.158Z,9.90
2023-03-24T00:07:16.417Z,9.80
2023-03-24T00:09:43.856Z,9.70
2023-03-24T00:12:11.620Z,9.60
2023-03-24T00:14:38.399Z,9.60
2023-03-24T00:17:06.149Z,9.60
2023-03-24T00:19:33.861Z,9.60
2023-03-24T00:22:00.411Z,9.60
2023-03-24T00:24:27.157Z,9.60
2023-03-24T00:26:57.179Z,9.60
2023-03-24T00:29:24.724Z,9.60
2023-03-24T00:31:53.165Z,9.50
2023-03-24T00:34:21.039Z,9.50
2023-03-24T00:36:48.506Z,9.40
2023-03-24T00:39:17.678Z,9.50
2023-03-24T00:41:45.885Z,9.60
2023-03-24T00:44:17.828Z,9.60
2023-03-24T00:46:55.393Z,9.60
2023-03-24T00:49:42.479Z,9.60
2023-03-24T00:52:13.532Z,9.80
2023-03-24T00:54:39.955Z,10.00
2023-03-24T00:57:07.838Z,10.10
2023-03-24T00:59:41.835Z,10.30
2023-03-24T01:02:11.696Z,10.40
2023-03-24T01:04:38.962Z,10.40
2023-03-24T01:07:07.639Z,10.50
2023-03-24T01:09:36.059Z,10.40
2023-03-24T01:12:06.831Z,10.50
2023-03-24T01:14:33.101Z,10.40
2023-03-24T01:17:00.174Z,10.40
2023-03-24T01:19:26.423Z,10.30
2023-03-24T01:21:53.847Z,10.30
2023-03-24T01:24:22.029Z,10.20
2023-03-24T01:26:49.569Z,10.10
2023-03-24T01:29:16.014Z,10.10
2023-03-24T01:31:42.554Z,10.20
2023-03-24T01:34:09.082Z,10.20
2023-03-24T01:36:35.348Z,10.30
2023-03-24T01:39:02.059Z,10.40
2023-03-24T01:41:34.557Z,10.50
2023-03-24T01:44:01.164Z,10.60
2023-03-24T01:46:29.199Z,10.60
2023-03-24T01:49:04.146Z,10.60
2023-03-24T01:51:42.411Z,10.70
2023-03-24T01:54:32.080Z,10.70
2023-03-24T01:57:05.954Z,10.00
2023-03-24T01:59:34.608Z,10.80
2023-03-24T02:02:04.013Z,11.00
2023-03-24T02:04:40.294Z,11.30
2023-03-24T02:07:19.152Z,11.50
2023-03-24T02:09:45.872Z,11.60
2023-03-24T02:12:13.088Z,11.70
2023-03-24T02:14:40.187Z,11.80
2023-03-24T02:18:47.216Z,11.90
2023-03-24T02:24:32.099Z,13.40
2023-03-24T02:27:21.357Z,11.90
2023-03-24T02:31:40.404Z,11.90
2023-03-24T02:35:27.512Z,11.90
2023-03-24T02:38:18.139Z,11.80
2023-03-24T02:40:48.151Z,11.80
2023-03-24T02:44:26.342Z,11.80
2023-03-24T02:47:03.011Z,11.80
2023-03-24T02:49:53.539Z,12.00
2023-03-24T02:54:58.877Z,12.00
2023-03-24T02:58:04.862Z,12.00
2023-03-24T03:00:49.835Z,12.10
2023-03-24T03:04:21.789Z,12.00
2023-03-24T03:06:51.915Z,12.00
2023-03-24T03:09:19.533Z,12.00
2023-03-24T03:11:50.921Z,12.00
2023-03-24T03:15:12.497Z,11.90
2023-03-24T03:17:48.044Z,11.80
2023-03-24T03:20:18.525Z,11.80
2023-03-24T03:23:06.720Z,11.80
2023-03-24T03:25:42.109Z,11.70
2023-03-24T03:28:08.349Z,11.70
2023-03-24T03:30:42.939Z,11.80
2023-03-24T03:33:56.139Z,11.70
2023-03-24T03:37:59.271Z,11.70
2023-03-24T03:40:40.800Z,11.70
2023-03-24T03:43:07.556Z,12.90
2023-03-24T03:45:34.112Z,11.70
2023-03-24T03:48:00.949Z,11.70
2023-03-24T03:50:27.701Z,11.60
2023-03-24T03:52:54.244Z,11.70
2023-03-24T03:55:20.653Z,11.60
2023-03-24T03:57:46.846Z,11.60
2023-03-24T04:00:19.214Z,11.60
2023-03-24T04:06:02.379Z,11.60
2023-03-24T04:10:28.701Z,11.60
2023-03-24T04:16:54.142Z,11.80
2023-03-24T04:20:49.378Z,11.60
2023-03-24T04:23:29.510Z,11.50
2023-03-24T04:26:25.657Z,11.50
2023-03-24T04:30:31.424Z,11.50
2023-03-24T04:33:05.297Z,11.50
2023-03-24T04:35:41.112Z,11.50
2023-03-24T04:38:14.290Z,11.50
2023-03-24T04:40:41.842Z,11.60
2023-03-24T04:43:09.811Z,11.50
2023-03-24T04:45:35.960Z,11.50
2023-03-24T04:48:03.843Z,11.50
2023-03-24T04:50:33.757Z,11.50
2023-03-24T04:53:00.522Z,11.50
2023-03-24T05:02:16.248Z,11.60
2023-03-24T05:04:42.394Z,11.60
2023-03-24T05:07:08.838Z,11.70
2023-03-24T05:09:35.689Z,11.70
2023-03-24T05:12:02.096Z,11.80
2023-03-24T05:14:28.549Z,11.80
2023-03-24T05:16:56.283Z,11.90
2023-03-24T05:19:23.103Z,11.90
2023-03-24T05:21:49.897Z,12.00
2023-03-24T05:24:16.108Z,11.90
2023-03-24T05:26:42.240Z,12.00
2023-03-24T05:29:08.529Z,12.00
2023-03-24T05:31:35.492Z,12.00
2023-03-24T05:34:01.759Z,12.30
2023-03-24T05:36:27.919Z,12.10
2023-03-24T05:38:54.134Z,12.10
2023-03-24T05:41:20.271Z,12.20
2023-03-24T05:43:46.660Z,12.30
2023-03-24T05:46:13.909Z,12.30
2023-03-24T05:48:40.067Z,12.40
2023-03-24T05:51:07.381Z,12.40
2023-03-24T05:53:33.649Z,12.50
2023-03-24T05:55:59.791Z,12.60
2023-03-24T05:58:26.149Z,12.70
2023-03-24T06:00:54.740Z,12.70
2023-03-24T06:03:21.296Z,12.70
2023-03-24T06:05:49.077Z,12.80
2023-03-24T06:08:16.367Z,12.80
2023-03-24T06:10:43.108Z,12.80
2023-03-24T06:13:09.519Z,12.80
2023-03-24T06:15:38.872Z,12.90
2023-03-24T06:18:05.591Z,12.90
2023-03-24T06:20:32.149Z,13.00
2023-03-24T06:22:59.570Z,13.10
2023-03-24T06:25:28.025Z,13.20
2023-03-24T06:27:54.166Z,13.30
2023-03-24T06:30:20.533Z,13.30
2023-03-24T06:32:47.033Z,13.50
2023-03-24T06:35:16.874Z,13.50
2023-03-24T06:37:43.065Z,13.50
2023-03-24T06:40:13.484Z,13.40
2023-03-24T06:42:39.666Z,13.50
2023-03-24T06:45:07.662Z,13.50
2023-03-24T06:47:33.902Z,13.50
2023-03-24T06:50:00.107Z,13.50
2023-03-24T06:52:27.402Z,13.60
2023-03-24T06:54:54.757Z,13.70
2023-03-24T06:57:21.171Z,13.80
2023-03-24T06:59:49.089Z,14.00
2023-03-24T07:02:17.058Z,14.20
2023-03-24T07:04:49.836Z,14.20
2023-03-24T07:07:44.713Z,14.30
2023-03-24T07:10:35.229Z,14.30
2023-03-24T07:13:02.778Z,14.30
2023-03-24T07:15:29.872Z,14.20
2023-03-24T07:17:56.219Z,14.20
2023-03-24T07:20:23.421Z,14.20
2023-03-24T07:22:49.598Z,14.20
2023-03-24T07:25:19.758Z,14.20
2023-03-24T07:27:46.382Z,14.20
2023-03-24T07:30:13.516Z,14.30
2023-03-24T07:32:40.677Z,14.50
2023-03-24T07:35:08.153Z,14.40
2023-03-24T07:37:34.900Z,14.40
2023-03-24T07:40:01.731Z,14.40
2023-03-24T07:42:28.118Z,14.30
2023-03-24T07:44:54.346Z,14.20
2023-03-24T07:47:20.579Z,14.10
2023-03-24T07:49:46.744Z,14.00
2023-03-24T07:52:13.104Z,13.80
2023-03-24T07:54:39.506Z,13.60
2023-03-24T07:57:06.501Z,13.60
2023-03-24T07:59:35.319Z,13.50
2023-03-24T08:02:03.237Z,13.40
2023-03-24T08:04:32.725Z,13.40
2023-03-24T08:06:59.549Z,13.30
2023-03-24T08:09:27.247Z,13.30
2023-03-24T08:11:53.457Z,13.30
2023-03-24T08:14:19.976Z,13.20
2023-03-24T08:16:46.248Z,13.20
2023-03-24T08:19:13.115Z,13.30
2023-03-24T08:21:40.225Z,13.20
2023-03-24T08:24:07.546Z,13.30
2023-03-24T08:26:34.699Z,13.30
2023-03-24T08:29:01.127Z,13.30
2023-03-24T08:31:36.709Z,13.50
2023-03-24T08:34:03.894Z,13.80
2023-03-24T08:36:30.198Z,14.20
2023-03-24T08:38:56.392Z,14.40
2023-03-24T08:41:36.122Z,14.90
2023-03-24T08:44:07.301Z,15.40
2023-03-24T08:46:34.203Z,16.20
2023-03-24T08:49:00.855Z,18.20
2023-03-24T08:51:27.173Z,17.80
2023-03-24T08:53:53.657Z,18.50
2023-03-24T08:56:19.883Z,18.20
2023-03-24T08:58:49.112Z,18.10
2023-03-24T09:01:15.616Z,17.90
2023-03-24T09:03:41.878Z,17.60
2023-03-24T09:06:11.046Z,17.40
2023-03-24T09:08:38.152Z,16.90
2023-03-24T09:11:05.370Z,16.80
2023-03-24T09:13:31.574Z,16.80
2023-03-24T09:16:01.235Z,16.80
2023-03-24T09:18:28.387Z,16.90
2023-03-24T09:20:54.803Z,17.10
2023-03-24T09:23:21.900Z,17.10
2023-03-24T09:25:52.037Z,17.10
2023-03-24T09:28:18.403Z,16.90
2023-03-24T09:30:45.216Z,16.90
2023-03-24T09:33:11.877Z,17.10
2023-03-24T09:35:39.888Z,17.10
2023-03-24T09:38:07.408Z,17.00
2023-03-24T09:40:36.713Z,17.00
2023-03-24T09:43:23.355Z,17.00
2023-03-24T09:45:55.130Z,17.10
2023-03-24T09:48:49.345Z,17.30
2023-03-24T09:51:22.104Z,17.30
2023-03-24T09:55:40.380Z,17.30
2023-03-24T09:58:08.268Z,17.60
2023-03-24T10:00:35.830Z,17.90
2023-03-24T10:03:14.395Z,18.00
2023-03-24T10:06:26.437Z,17.70
2023-03-24T10:09:12.005Z,17.50
2023-03-24T10:13:03.813Z,17.70
2023-03-24T10:15:38.269Z,17.90
2023-03-24T10:18:43.214Z,17.90
2023-03-24T10:21:25.636Z,17.80
2023-03-24T10:24:03.783Z,18.00
2023-03-24T10:29:46.046Z,18.10
2023-03-24T10:32:16.188Z,18.40
2023-03-24T10:34:43.909Z,20.00
2023-03-24T10:37:10.918Z,20.40
2023-03-24T10:39:44.014Z,20.70
2023-03-24T10:42:25.194Z,20.80
2023-03-24T10:44:52.364Z,20.80
2023-03-24T10:47:30.132Z,20.90
2023-03-24T10:50:11.951Z,20.70
2023-03-24T10:52:42.717Z,20.90
2023-03-24T10:55:17.538Z,21.20
2023-03-24T10:57:44.914Z,21.50
2023-03-24T11:00:23.461Z,21.70
2023-03-24T11:02:59.205Z,21.70
2023-03-24T11:05:30.069Z,21.10
2023-03-24T11:08:12.131Z,20.70
2023-03-24T11:10:38.626Z,20.30
2023-03-24T11:13:07.581Z,19.80
2023-03-24T11:15:35.590Z,19.50
2023-03-24T11:18:16.047Z,19.30
2023-03-24T11:21:42.888Z,19.10
2023-03-24T11:24:11.511Z,19.10
2023-03-24T11:26:38.898Z,19.10
2023-03-24T11:29:07.744Z,19.20
2023-03-24T11:31:37.703Z,19.40
2023-03-24T11:34:16.956Z,19.40
2023-03-24T11:37:01.894Z,19.20
2023-03-24T11:39:31.207Z,19.30
2023-03-24T11:42:16.654Z,19.30
2023-03-24T11:44:48.785Z,19.20
2023-03-24T11:47:37.487Z,19.20
2023-03-24T11:50:18.006Z,19.10
2023-03-24T11:52:52.334Z,19.10
2023-03-24T11:55:32.356Z,18.90
2023-03-24T12:01:10.413Z,18.80
2023-03-24T12:10:41.265Z,18.90
2023-03-24T12:13:50.111Z,18.70
2023-03-24T12:17:41.964Z,18.60
2023-03-24T12:23:42.881Z,18.60
2023-03-24T12:26:21.831Z,18.50
2023-03-24T12:30:14.526Z,18.50
2023-03-24T12:33:03.711Z,18.30
2023-03-24T12:37:11.041Z,18.10
2023-03-24T12:43:13.089Z,17.90
2023-03-24T12:45:51.907Z,17.60
2023-03-24T12:48:46.974Z,17.60
2023-03-24T12:52:58.151Z,17.50
2023-03-24T12:55:40.731Z,17.50
2023-03-24T13:04:57.232Z,17.40
2023-03-24T13:07:25.554Z,17.40
2023-03-24T13:10:32.811Z,17.40
2023-03-24T13:13:20.706Z,17.30
2023-03-24T13:16:30.851Z,17.30
2023-03-24T13:18:59.518Z,17.30
2023-03-24T13:21:27.993Z,17.30
2023-03-24T13:24:10.185Z,17.20
2023-03-24T13:27:16.093Z,17.10
2023-03-24T13:31:13.648Z,17.10
2023-03-24T13:33:40.680Z,16.90
2023-03-24T13:36:31.475Z,16.90
2023-03-24T13:39:00.189Z,16.70
2023-03-24T13:41:26.883Z,16.70
2023-03-24T13:44:08.602Z,16.60
2023-03-24T13:46:40.760Z,16.50
2023-03-24T13:49:11.832Z,16.50
2023-03-24T13:51:43.306Z,16.50
2023-03-24T13:54:17.491Z,16.50
2023-03-24T13:57:05.899Z,16.40
2023-03-24T13:59:58.667Z,16.40
2023-03-24T14:04:13.770Z,16.30
2023-03-24T14:06:54.291Z,16.30
2023-03-24T14:09:25.660Z,16.30
2023-03-24T14:12:17.077Z,16.20
2023-03-24T14:15:03.120Z,16.20
2023-03-24T14:17:30.846Z,16.20
2023-03-24T14:21:20.835Z,16.20
2023-03-24T14:23:48.693Z,16.30
2023-03-24T14:26:36.363Z,17.10
2023-03-24T14:29:03.453Z,16.80
2023-03-24T14:31:31.214Z,17.00
2023-03-24T14:35:05.270Z,17.00
2023-03-24T14:37:31.983Z,17.00
2023-03-24T14:40:01.588Z,17.00
2023-03-24T14:43:17.816Z,17.00
2023-03-24T14:46:47.305Z,17.00
2023-03-24T14:53:21.804Z,16.90
2023-03-24T14:55:48.598Z,16.90
2023-03-24T14:58:36.215Z,17.00
2023-03-24T15:01:06.936Z,17.10
2023-03-24T15:03:48.916Z,17.20
2023-03-24T15:06:19.174Z,17.50
2023-03-24T15:08:58.577Z,17.50
2023-03-24T15:11:32.369Z,17.50
2023-03-24T15:14:02.361Z,17.50
2023-03-24T15:16:30.317Z,17.50
2023-03-24T15:19:39.223Z,17.50
2023-03-24T15:22:08.272Z,17.50
2023-03-24T15:24:36.260Z,17.50
2023-03-24T15:27:51.575Z,17.50
2023-03-24T15:30:19.147Z,17.60
2023-03-24T15:32:49.621Z,17.60
2023-03-24T15:35:22.361Z,17.70
2023-03-24T15:37:53.365Z,17.70
2023-03-24T15:41:03.412Z,17.70
2023-03-24T15:43:30.531Z,17.60
2023-03-24T15:46:11.214Z,17.60
2023-03-24T15:48:38.527Z,17.50
2023-03-24T15:51:07.198Z,17.40
2023-03-24T15:53:41.492Z,17.30
2023-03-24T15:56:19.880Z,17.20
2023-03-24T15:58:54.831Z,17.20
2023-03-24T16:01:36.211Z,17.10
2023-03-24T16:04:11.457Z,17.10
2023-03-24T16:06:39.301Z,17.10
2023-03-24T16:09:10.314Z,19.20
2023-03-24T16:11:36.674Z,18.50
2023-03-24T16:14:39.562Z,16.80
2023-03-24T16:17:06.803Z,16.90
2023-03-24T16:19:33.159Z,16.80
2023-03-24T16:21:59.477Z,16.80
2023-03-24T16:24:25.804Z,16.80
2023-03-24T16:26:52.274Z,16.70
2023-03-24T16:29:21.328Z,16.70
2023-03-24T16:31:49.567Z,16.60
2023-03-24T16:34:18.198Z,16.60
2023-03-24T16:36:48.438Z,16.50
2023-03-24T16:39:22.444Z,16.40
2023-03-24T16:41:48.786Z,16.30
2023-03-24T16:44:17.139Z,16.20
2023-03-24T16:46:46.573Z,16.10
2023-03-24T16:49:15.627Z,16.00
2023-03-24T16:51:43.614Z,15.90
2023-03-24T16:54:09.913Z,15.80
2023-03-24T16:56:37.508Z,15.80
2023-03-24T16:59:04.497Z,15.60
2023-03-24T17:01:36.603Z,15.70
2023-03-24T17:04:14.064Z,15.60
2023-03-24T17:06:42.705Z,15.50
2023-03-24T17:09:09.910Z,15.30
2023-03-24T17:11:39.838Z,15.40
2023-03-24T17:14:09.437Z,15.30
2023-03-24T17:16:36.545Z,15.40
2023-03-24T17:19:04.267Z,15.40
2023-03-24T17:21:31.607Z,15.40
2023-03-24T17:23:57.748Z,15.40
2023-03-24T17:26:25.211Z,15.50
2023-03-24T17:28:51.906Z,15.60
2023-03-24T17:31:20.483Z,15.60
2023-03-24T17:33:47.163Z,15.50
2023-03-24T17:36:15.466Z,15.50
2023-03-24T17:38:43.586Z,15.60
2023-03-24T17:41:10.429Z,15.60
2023-03-24T17:43:36.617Z,15.60
2023-03-24T17:46:03.193Z,15.60
2023-03-24T17:48:29.922Z,15.60
2023-03-24T17:50:56.391Z,15.50
2023-03-24T17:53:26.666Z,15.30
2023-03-24T17:55:57.219Z,14.40
2023-03-24T17:58:24.465Z,13.70
2023-03-24T18:00:51.248Z,13.40
2023-03-24T18:03:17.942Z,13.20
2023-03-24T18:05:44.940Z,13.00
2023-03-24T18:08:11.837Z,12.80
2023-03-24T18:10:38.159Z,12.70
2023-03-24T18:13:05.658Z,12.60
2023-03-24T18:15:32.900Z,12.50
2023-03-24T18:17:59.623Z,12.50
2023-03-24T18:20:26.875Z,12.30
2023-03-24T18:22:53.627Z,12.30
2023-03-24T18:25:21.332Z,12.20
2023-03-24T18:27:48.105Z,12.30
2023-03-24T18:30:17.051Z,12.20
2023-03-24T18:32:43.634Z,12.20
2023-03-24T18:35:15.262Z,12.10
2023-03-24T18:37:41.760Z,12.00
2023-03-24T18:40:09.372Z,12.00
2023-03-24T18:42:36.846Z,12.00
2023-03-24T18:45:07.244Z,11.90
2023-03-24T18:47:34.640Z,11.90
2023-03-24T18:50:00.985Z,11.80
2023-03-24T18:52:27.485Z,11.70
2023-03-24T18:54:53.676Z,11.60
2023-03-24T18:57:21.372Z,11.40
2023-03-24T18:59:48.202Z,11.30
2023-03-24T19:02:15.969Z,11.20
2023-03-24T19:04:43.456Z,11.00
2023-03-24T19:07:14.567Z,11.00
2023-03-24T19:09:41.933Z,11.00
2023-03-24T19:12:09.024Z,10.90
2023-03-24T19:14:38.548Z,10.80
2023-03-24T19:17:06.342Z,10.70
2023-03-24T19:19:33.408Z,10.60
2023-03-24T19:22:00.434Z,10.50
2023-03-24T19:24:28.552Z,10.50
2023-03-24T19:26:57.674Z,10.30
2023-03-24T19:29:25.030Z,10.20
2023-03-24T19:31:52.016Z,10.10
2023-03-24T19:34:24.142Z,10.00
2023-03-24T19:36:51.765Z,9.90
2023-03-24T19:39:18.067Z,9.90
2023-03-24T19:41:44.743Z,9.90
2023-03-24T19:44:13.363Z,9.90
2023-03-24T19:46:41.233Z,9.90
2023-03-24T19:49:08.334Z,10.00
2023-03-24T19:51:35.244Z,10.00
2023-03-24T19:54:03.394Z,10.00
2023-03-24T19:56:31.418Z,10.00
2023-03-24T19:58:58.425Z,10.00
2023-03-24T20:01:25.040Z,9.90
2023-03-24T20:03:51.528Z,9.80
2023-03-24T20:06:19.908Z,9.90
2023-03-24T20:08:47.040Z,9.80
2023-03-24T20:11:13.626Z,9.80
2023-03-24T20:13:41.002Z,9.80
2023-03-24T20:16:07.495Z,9.80
2023-03-24T20:18:39.822Z,9.80
2023-03-24T20:21:07.854Z,9.80
2023-03-24T20:23:34.054Z,9.80
2023-03-24T20:26:01.798Z,9.70
2023-03-24T20:28:28.667Z,9.70
2023-03-24T20:31:05.774Z,9.70
2023-03-24T20:33:33.110Z,9.70
2023-03-24T20:36:04.419Z,9.70
2023-03-24T20:38:31.923Z,9.60
2023-03-24T20:41:07.914Z,9.60
2023-03-24T20:43:38.168Z,9.50
2023-03-24T20:46:06.963Z,9.40
2023-03-24T20:48:36.934Z,9.40
2023-03-24T20:51:06.924Z,9.30
2023-03-24T20:53:35.984Z,9.10
2023-03-24T20:56:07.970Z,9.10
2023-03-24T20:58:37.994Z,9.00
2023-03-24T21:01:09.581Z,8.90
2023-03-24T21:03:39.489Z,8.80
2023-03-24T21:06:10.199Z,8.80
2023-03-24T21:08:37.384Z,8.70
2023-03-24T21:11:06.454Z,8.70
2023-03-24T21:13:37.861Z,8.60
2023-03-24T21:16:10.144Z,8.60
2023-03-24T21:18:37.320Z,8.60
2023-03-24T21:21:11.723Z,8.70
2023-03-24T21:23:39.696Z,8.70
2023-03-24T21:26:08.614Z,8.80
2023-03-24T21:28:35.199Z,8.80
2023-03-24T21:31:24.736Z,9.00
2023-03-24T21:33:53.622Z,9.10
2023-03-24T21:36:20.324Z,9.10
2023-03-24T21:38:53.980Z,9.20
2023-03-24T21:41:21.376Z,9.30
2023-03-24T21:43:53.341Z,9.30
2023-03-24T21:46:21.086Z,9.30
2023-03-24T21:48:51.837Z,9.30
2023-03-24T21:51:21.158Z,9.30
2023-03-24T21:53:47.893Z,9.40
2023-03-24T21:56:14.380Z,9.50
2023-03-24T21:58:41.202Z,9.50
2023-03-24T22:01:08.345Z,9.50
2023-03-24T22:03:37.274Z,9.60
2023-03-24T22:06:04.974Z,9.60
2023-03-24T22:08:32.238Z,9.60
2023-03-24T22:11:04.384Z,9.60
2023-03-24T22:13:34.526Z,9.70
2023-03-24T22:16:02.447Z,9.90
2023-03-24T22:18:31.027Z,9.60
2023-03-24T22:21:03.756Z,9.60
2023-03-24T22:23:32.941Z,9.50
2023-03-24T22:26:03.678Z,9.40
2023-03-24T22:28:30.674Z,9.40
2023-03-24T22:31:31.828Z,9.30
2023-03-24T22:33:58.207Z,9.40
2023-03-24T22:36:27.775Z,9.30
2023-03-24T22:38:54.417Z,9.30
2023-03-24T22:41:21.082Z,9.30
2023-03-24T22:43:47.232Z,9.20
2023-03-24T22:46:13.869Z,9.20
2023-03-24T22:48:40.033Z,9.20
2023-03-24T22:51:08.206Z,9.20
2023-03-24T22:53:35.601Z,9.20
2023-03-24T22:56:02.339Z,10.70
2023-03-24T22:58:28.823Z,9.20
2023-03-24T23:00:56.230Z,9.10
2023-03-24T23:03:22.490Z,9.10
2023-03-24T23:05:49.077Z,9.00
2023-03-24T23:08:15.735Z,9.00
2023-03-24T23:10:43.632Z,8.90
2023-03-24T23:13:11.134Z,8.90
2023-03-24T23:15:41.686Z,8.90
2023-03-24T23:18:09.030Z,8.80
2023-03-24T23:20:35.984Z,8.80
2023-03-24T23:23:03.342Z,8.70
2023-03-24T23:25:31.912Z,8.70
2023-03-24T23:27:58.399Z,8.60
2023-03-24T23:30:24.625Z,8.50
2023-03-24T23:32:50.828Z,8.50
2023-03-24T23:35:17.331Z,8.40
2023-03-24T23:37:44.366Z,8.40
2023-03-24T23:40:13.071Z,8.40
2023-03-24T23:42:47.747Z,8.30
2023-03-24T23:45:19.131Z,8.20
2023-03-24T23:47:47.556Z,8.20
2023-03-24T23:50:17.026Z,8.20
2023-03-24T23:52:43.371Z,8.20
2023-03-24T23:55:11.241Z,8.20
2023-03-24T23:57:41.549Z,8.20
